Time;durP1;ratioP1;P1;durP2;ratioP2;P2;SDS_P1;SDS_P2;PMS_P1;PMS_P2;Temp;Humidity;BMP_temperature;BMP_pressure;BME280_temperature;BME280_humidity;BME280_pressure;Samples;Min_cycle;Max_cycle;Signal;HPM_P1;HPM_P2
2022/04/20 00:01:15;;;;;;;4.72;3.17;;;;;;;;;;4739043;30;20057;-88
2022/04/20 00:03:41;;;;;;;6.53;4.07;;;;;;;;;;4739553;30;20153;-90
2022/04/20 00:06:07;;;;;;;4.25;3.70;;;;;;;;;;4755197;30;20102;-91
2022/04/20 00:08:34;;;;;;;10.68;3.00;;;;;;;;;;4739057;30;20497;-89
2022/04/20 00:11:00;;;;;;;4.53;3.75;;;;;;;;;;4754903;30;20059;-90
2022/04/20 00:13:26;;;;;;;10.55;3.03;;;;;;;;;;4737505;30;20048;-89
2022/04/20 00:15:52;;;;;;;7.00;3.40;;;;;;;;;;4738372;30;20053;-89
2022/04/20 00:18:18;;;;;;;3.97;2.65;;;;;;;;;;4721908;30;20060;-90
2022/04/20 00:20:45;;;;;;;3.47;2.72;;;;;;;;;;4721419;30;20049;-88
2022/04/20 00:23:11;;;;;;;5.15;2.78;;;;;;;;;;4734148;30;20060;-89
2022/04/20 00:25:37;;;;;;;5.13;2.80;;;;;;;;;;4739540;30;20064;-92
2022/04/20 00:28:03;;;;;;;5.18;2.90;;;;;;;;;;4739480;30;20084;-91
2022/04/20 00:30:29;;;;;;;3.22;2.88;;;;;;;;;;4739875;30;20141;-90
2022/04/20 00:32:55;;;;;;;3.00;2.70;;;;;;;;;;4739746;30;20101;-89
2022/04/20 00:35:21;;;;;;;4.40;2.90;;;;;;;;;;4739541;30;20051;-90
2022/04/20 00:37:48;;;;;;;8.15;2.90;;;;;;;;;;4725656;30;20055;-93
2022/04/20 00:40:14;;;;;;;5.88;3.15;;;;;;;;;;4724346;30;20060;-89
2022/04/20 00:42:41;;;;;;;3.42;2.80;;;;;;;;;;4725386;30;20155;-88
2022/04/20 00:45:08;;;;;;;3.80;2.67;;;;;;;;;;4738735;30;20123;-95
2022/04/20 00:47:36;;;;;;;5.90;3.35;;;;;;;;;;4739417;30;20052;-92
2022/04/20 00:50:03;;;;;;;3.22;2.90;;;;;;;;;;4724645;30;20161;-91
2022/04/20 00:52:29;;;;;;;3.80;3.33;;;;;;;;;;4738901;30;20458;-91
2022/04/20 00:54:55;;;;;;;4.00;3.00;;;;;;;;;;4725019;30;20513;-91
2022/04/20 00:57:21;;;;;;;4.68;2.88;;;;;;;;;;4724511;30;20061;-91
2022/04/20 00:59:48;;;;;;;10.90;2.83;;;;;;;;;;4739120;30;20119;-89
2022/04/20 01:02:15;;;;;;;3.35;2.90;;;;;;;;;;4724548;30;20086;-87
2022/04/20 01:04:41;;;;;;;3.42;2.85;;;;;;;;;;4738626;30;20055;-90
2022/04/20 01:07:14;;;;;;;6.22;3.85;;;;;;;;;;4738405;30;20553;-86
2022/04/20 01:09:41;;;;;;;5.15;3.25;;;;;;;;;;4737271;30;20060;-87
2022/04/20 01:12:08;;;;;;;3.22;2.90;;;;;;;;;;4723616;30;20044;-86
2022/04/20 01:14:35;;;;;;;6.50;3.33;;;;;;;;;;4738451;30;20059;-86
2022/04/20 01:17:01;;;;;;;5.85;3.20;;;;;;;;;;4723522;30;20107;-85
2022/04/20 01:19:33;;;;;;;5.10;3.03;;;;;;;;;;4737946;30;20059;-90
2022/04/20 01:22:00;;;;;;;5.97;2.88;;;;;;;;;;4723888;30;20502;-87
2022/04/20 01:24:26;;;;;;;3.85;3.35;;;;;;;;;;4738345;30;20518;-89
2022/04/20 01:26:52;;;;;;;5.88;3.45;;;;;;;;;;4737855;30;20117;-86
2022/04/20 01:29:20;;;;;;;6.72;3.42;;;;;;;;;;4738007;30;20218;-90
2022/04/20 01:31:46;;;;;;;3.25;2.83;;;;;;;;;;4739189;30;20444;-89
2022/04/20 01:34:12;;;;;;;4.40;3.15;;;;;;;;;;4723785;30;20052;-90
2022/04/20 01:36:38;;;;;;;3.85;3.22;;;;;;;;;;4723770;30;20056;-90
2022/04/20 01:39:04;;;;;;;5.88;3.85;;;;;;;;;;4737350;30;20052;-88
2022/04/20 01:41:33;;;;;;;6.80;3.80;;;;;;;;;;4738089;30;20110;-89
2022/04/20 01:43:59;;;;;;;10.25;3.10;;;;;;;;;;4722953;30;20056;-88
2022/04/20 01:46:25;;;;;;;4.22;3.00;;;;;;;;;;4722999;30;20055;-92
2022/04/20 01:48:51;;;;;;;5.25;3.97;;;;;;;;;;4738025;30;20132;-92
2022/04/20 01:54:01;;;;;;;6.57;3.90;;;;;;;;;;4737535;30;20506;-91
2022/04/20 01:56:27;;;;;;;7.85;4.25;;;;;;;;;;4722610;30;20055;-91
2022/04/20 01:58:54;;;;;;;5.88;3.22;;;;;;;;;;4723535;30;20044;-89
2022/04/20 02:04:06;;;;;;;5.35;3.35;;;;;;;;;;4738025;30;20482;-92
2022/04/20 02:06:32;;;;;;;5.28;3.50;;;;;;;;;;4723724;30;20121;-89
2022/04/20 02:08:58;;;;;;;4.25;3.22;;;;;;;;;;4738281;30;20056;-89
2022/04/20 02:11:24;;;;;;;5.95;3.50;;;;;;;;;;4723484;30;20059;-88
2022/04/20 02:13:50;;;;;;;8.10;3.85;;;;;;;;;;4722570;30;20131;-90
2022/04/20 02:16:16;;;;;;;3.47;3.10;;;;;;;;;;4737854;30;20099;-89
2022/04/20 02:18:42;;;;;;;4.57;3.80;;;;;;;;;;4736888;30;20485;-90
2022/04/20 02:21:08;;;;;;;4.43;3.17;;;;;;;;;;4722730;30;20418;-90
2022/04/20 02:23:34;;;;;;;6.13;3.35;;;;;;;;;;4737569;30;20113;-90
2022/04/20 02:26:00;;;;;;;4.82;3.92;;;;;;;;;;4736862;30;20095;-91
2022/04/20 02:28:26;;;;;;;4.30;3.42;;;;;;;;;;4721887;30;20056;-89
2022/04/20 02:30:52;;;;;;;6.72;3.95;;;;;;;;;;4736716;30;20087;-85
2022/04/20 02:33:19;;;;;;;6.95;4.28;;;;;;;;;;4721972;30;20106;-90
2022/04/20 02:35:45;;;;;;;4.28;3.53;;;;;;;;;;4722763;30;20390;-90
2022/04/20 02:38:12;;;;;;;9.98;3.55;;;;;;;;;;4738053;30;20052;-92
2022/04/20 02:40:38;;;;;;;4.65;3.53;;;;;;;;;;4723863;30;20055;-96
2022/04/20 02:43:05;;;;;;;5.00;3.22;;;;;;;;;;4737583;30;20063;-94
2022/04/20 02:45:31;;;;;;;6.22;3.45;;;;;;;;;;4738330;30;20075;-95
2022/04/20 02:47:57;;;;;;;6.47;3.78;;;;;;;;;;4723776;30;20513;-94
2022/04/20 02:50:23;;;;;;;8.18;3.60;;;;;;;;;;4738501;30;20052;-94
2022/04/20 02:52:49;;;;;;;6.88;3.72;;;;;;;;;;4738441;30;20086;-91
2022/04/20 02:55:15;;;;;;;7.53;3.78;;;;;;;;;;4723746;30;20052;-90
2022/04/20 02:57:41;;;;;;;4.50;3.95;;;;;;;;;;4723802;30;20056;-92
2022/04/20 03:00:08;;;;;;;5.10;3.83;;;;;;;;;;4721326;30;20133;-88
2022/04/20 03:02:34;;;;;;;6.95;3.75;;;;;;;;;;4737577;30;20048;-92
2022/04/20 03:05:00;;;;;;;5.43;4.45;;;;;;;;;;4739033;30;20050;-90
2022/04/20 03:07:27;;;;;;;9.68;3.97;;;;;;;;;;4739904;30;20052;-88
2022/04/20 03:09:53;;;;;;;5.18;3.75;;;;;;;;;;4742007;30;20579;-92
2022/04/20 03:12:19;;;;;;;5.75;3.78;;;;;;;;;;4758274;30;20094;-89
2022/04/20 03:14:45;;;;;;;6.53;3.78;;;;;;;;;;4757616;30;20056;-95
2022/04/20 03:17:13;;;;;;;6.20;3.78;;;;;;;;;;4742177;30;20054;-91
2022/04/20 03:19:39;;;;;;;7.53;3.92;;;;;;;;;;4741752;30;20562;-90
2022/04/20 03:22:05;;;;;;;5.70;3.70;;;;;;;;;;4726998;30;20087;-89
2022/04/20 03:24:31;;;;;;;4.38;3.40;;;;;;;;;;4757298;30;20048;-95
2022/04/20 03:26:57;;;;;;;7.28;4.07;;;;;;;;;;4725879;30;20131;-85
2022/04/20 03:29:23;;;;;;;4.43;4.03;;;;;;;;;;4740260;30;20442;-89
2022/04/20 03:31:50;;;;;;;4.38;3.80;;;;;;;;;;4726055;30;20117;-92
2022/04/20 03:34:16;;;;;;;5.38;3.95;;;;;;;;;;4725591;30;20486;-92
2022/04/20 03:36:42;;;;;;;5.13;3.65;;;;;;;;;;4740392;30;20048;-92
2022/04/20 03:39:08;;;;;;;5.57;4.32;;;;;;;;;;4740308;30;20261;-90
2022/04/20 03:41:34;;;;;;;9.57;4.57;;;;;;;;;;4725959;30;20060;-88
2022/04/20 03:44:00;;;;;;;5.43;4.07;;;;;;;;;;4726149;30;20056;-91
2022/04/20 03:46:28;;;;;;;5.28;4.22;;;;;;;;;;4725488;30;20394;-90
2022/04/20 03:48:54;;;;;;;9.10;3.90;;;;;;;;;;4739842;30;20066;-90
2022/04/20 03:51:20;;;;;;;4.35;3.95;;;;;;;;;;4725898;30;20498;-93
2022/04/20 03:53:46;;;;;;;5.53;3.75;;;;;;;;;;4725798;30;20048;-90
2022/04/20 03:56:12;;;;;;;4.97;3.83;;;;;;;;;;4740343;30;20044;-91
2022/04/20 03:58:38;;;;;;;5.95;4.22;;;;;;;;;;4726041;30;20109;-90
2022/04/20 04:01:05;;;;;;;4.57;4.07;;;;;;;;;;4740782;30;20082;-89
2022/04/20 04:03:31;;;;;;;5.50;4.40;;;;;;;;;;4726722;30;20506;-90
2022/04/20 04:05:57;;;;;;;5.18;4.00;;;;;;;;;;4741400;30;20048;-92
2022/04/20 04:08:23;;;;;;;6.53;4.70;;;;;;;;;;4727026;30;20529;-88
2022/04/20 04:10:50;;;;;;;6.35;4.28;;;;;;;;;;4727128;30;20048;-86
2022/04/20 04:13:17;;;;;;;5.05;4.07;;;;;;;;;;4744393;30;20506;-90
2022/04/20 04:15:46;;;;;;;4.72;3.83;;;;;;;;;;4729890;30;20456;-90
2022/04/20 04:18:12;;;;;;;7.70;4.75;;;;;;;;;;4729129;30;20460;-89
2022/04/20 04:20:38;;;;;;;6.38;4.07;;;;;;;;;;4727901;30;20056;-87
2022/04/20 04:23:04;;;;;;;6.88;4.63;;;;;;;;;;4742558;30;20052;-85
2022/04/20 04:25:30;;;;;;;5.47;3.97;;;;;;;;;;4730258;30;20391;-90
2022/04/20 04:27:56;;;;;;;4.88;4.03;;;;;;;;;;4743430;30;20056;-88
2022/04/20 04:30:22;;;;;;;6.82;4.40;;;;;;;;;;4758149;30;20071;-90
2022/04/20 04:32:49;;;;;;;6.13;4.88;;;;;;;;;;4725726;30;20498;-89
2022/04/20 04:35:15;;;;;;;7.65;4.03;;;;;;;;;;4740229;30;20052;-88
2022/04/20 04:37:41;;;;;;;8.35;4.22;;;;;;;;;;4726326;30;20491;-89
2022/04/20 04:40:08;;;;;;;4.10;3.70;;;;;;;;;;4726216;30;20071;-88
2022/04/20 04:42:34;;;;;;;9.15;4.68;;;;;;;;;;4726483;30;20083;-90
2022/04/20 04:48:36;;;;;;;8.73;3.75;;;;;;;;;;4742542;30;20039;-93
2022/04/20 04:50:30;;;;;;;6.35;4.32;;;;;;;;;;4757465;30;20082;-94
2022/04/20 04:52:57;;;;;;;5.30;4.00;;;;;;;;;;4757559;30;20050;-94
2022/04/20 04:55:23;;;;;;;9.88;4.47;;;;;;;;;;4740303;30;20044;-91
2022/04/20 04:57:49;;;;;;;4.47;3.92;;;;;;;;;;4724679;30;20040;-92
2022/04/20 05:00:15;;;;;;;6.32;4.20;;;;;;;;;;4725234;30;20102;-88
2022/04/20 05:02:41;;;;;;;5.57;4.22;;;;;;;;;;4738965;30;20123;-90
2022/04/20 05:05:07;;;;;;;4.40;3.60;;;;;;;;;;4723984;30;20083;-85
2022/04/20 05:07:33;;;;;;;5.88;5.03;;;;;;;;;;4723863;30;20091;-85
2022/04/20 05:09:59;;;;;;;5.88;4.35;;;;;;;;;;4724176;30;20060;-88
2022/04/20 05:12:25;;;;;;;6.30;4.10;;;;;;;;;;4739098;30;20052;-86
2022/04/20 05:14:52;;;;;;;6.57;4.13;;;;;;;;;;4738071;30;20183;-90
2022/04/20 05:17:18;;;;;;;9.35;4.05;;;;;;;;;;4738495;30;20060;-85
2022/04/20 05:19:44;;;;;;;6.40;3.78;;;;;;;;;;4724071;30;20051;-85
2022/04/20 05:22:10;;;;;;;7.22;3.83;;;;;;;;;;4722116;30;20044;-85
2022/04/20 05:24:37;;;;;;;5.43;4.18;;;;;;;;;;4723324;30;20064;-88
2022/04/20 05:27:03;;;;;;;6.50;4.72;;;;;;;;;;4736341;30;20145;-90
2022/04/20 05:29:33;;;;;;;4.45;3.45;;;;;;;;;;4723580;30;20060;-89
2022/04/20 05:32:05;;;;;;;11.77;4.57;;;;;;;;;;4752871;30;20044;-90
2022/04/20 05:34:33;;;;;;;6.30;4.00;;;;;;;;;;4738267;30;20418;-89
2022/04/20 05:42:28;;;;;;;6.43;4.15;;;;;;;;;;4738283;30;20060;-87
2022/04/20 05:44:54;;;;;;;11.00;4.18;;;;;;;;;;4738739;30;20048;-86
2022/04/20 05:47:21;;;;;;;6.78;4.00;;;;;;;;;;4737949;30;20051;-91
2022/04/20 05:49:47;;;;;;;6.97;4.00;;;;;;;;;;4723363;30;20056;-92
2022/04/20 05:52:13;;;;;;;10.20;4.20;;;;;;;;;;4722784;30;20135;-89
2022/04/20 05:54:42;;;;;;;6.75;4.65;;;;;;;;;;4723423;30;20391;-90
2022/04/20 05:57:12;;;;;;;5.75;4.10;;;;;;;;;;4753667;30;20050;-90
2022/04/20 05:59:38;;;;;;;6.68;3.63;;;;;;;;;;4723281;30;20056;-90
2022/04/20 06:02:05;;;;;;;5.53;3.95;;;;;;;;;;4737271;30;20135;-89
2022/04/20 06:04:31;;;;;;;8.75;4.15;;;;;;;;;;4737942;30;20132;-89
2022/04/20 06:06:57;;;;;;;6.70;4.20;;;;;;;;;;4736356;30;20040;-89
2022/04/20 06:09:23;;;;;;;5.55;4.68;;;;;;;;;;4738025;30;20139;-89
2022/04/20 06:11:52;;;;;;;5.13;4.40;;;;;;;;;;4737489;30;20055;-89
2022/04/20 06:14:18;;;;;;;9.13;4.00;;;;;;;;;;4738763;30;20052;-85
2022/04/20 06:16:45;;;;;;;6.30;3.55;;;;;;;;;;4737046;30;20048;-90
2022/04/20 06:21:46;;;;;;;7.38;4.68;;;;;;;;;;4769496;24;20129;-90
2022/04/20 06:24:14;;;;;;;5.07;4.18;;;;;;;;;;4756409;24;20533;-91
2022/04/20 06:26:40;;;;;;;10.65;4.32;;;;;;;;;;4759933;24;21247;-85
2022/04/20 06:29:07;;;;;;;5.50;4.75;;;;;;;;;;4743556;24;20506;-85
2022/04/20 06:31:34;;;;;;;11.90;5.10;;;;;;;;;;4722584;24;20061;-85
2022/04/20 06:34:07;;;;;;;6.22;4.32;;;;;;;;;;4728392;24;20147;-90
2022/04/20 06:36:33;;;;;;;11.45;4.68;;;;;;;;;;4741739;30;20063;-89
2022/04/20 06:39:06;;;;;;;10.30;4.80;;;;;;;;;;4753529;24;20062;-87
2022/04/20 06:41:32;;;;;;;5.80;4.50;;;;;;;;;;4740297;24;20079;-89
2022/04/20 06:43:58;;;;;;;15.50;5.65;;;;;;;;;;4751016;24;20064;-86
2022/04/20 06:46:29;;;;;;;7.00;4.95;;;;;;;;;;4746893;30;20510;-92
2022/04/20 06:49:07;;;;;;;8.80;5.10;;;;;;;;;;4733914;30;20051;-92
2022/04/20 06:58:55;;;;;;;;;;;;;;;;;;;;;
2022/04/20 07:11:16;;;;;;;5.40;4.07;;;;;;;;;;4859273;24;20060;-90
2022/04/20 07:13:54;;;;;;;5.78;4.38;;;;;;;;;;4706593;30;20161;-93
2022/04/20 07:16:30;;;;;;;5.75;4.70;;;;;;;;;;4718869;30;20076;-93
2022/04/20 07:18:57;;;;;;;5.13;3.58;;;;;;;;;;4705791;30;20052;-94
2022/04/20 07:21:31;;;;;;;4.90;4.03;;;;;;;;;;4701717;30;20044;-94
2022/04/20 07:24:26;;;;;;;;;;;9.00;99.90;;;;;;4710601;30;20052;-93
2022/04/20 07:39:18;;;;;;;7.60;4.18;;;;;;;;;;4812581;24;20052;-94
2022/04/20 07:45:28;;;;;;;4.75;3.50;;;;;;;;;;4719447;30;20060;-92
2022/04/20 07:47:55;;;;;;;5.28;3.72;;;;;;;;;;4725570;24;20049;-90
2022/04/20 07:50:24;;;;;;;6.18;4.50;;;;;;;;;;4737576;30;20064;-92
2022/04/20 07:52:52;;;;;;;3.45;3.05;;;;;;;;;;4742200;30;20052;-95
2022/04/20 07:55:55;;;;;;;4.82;3.67;;;;;;;;;;4744863;30;20558;-93
2022/04/20 07:58:21;;;;;;;4.10;3.20;;;;;;;;;;4708352;30;20064;-93
2022/04/20 08:00:49;;;;;;;4.97;3.42;;;;;;;;;;4708527;30;20045;-88
2022/04/20 08:03:19;;;;;;;3.83;3.45;;;;;;;;;;4709559;30;20069;-90
2022/04/20 08:05:49;;;;;;;4.93;3.85;;;;;;;;;;4719527;30;20524;-92
2022/04/20 08:08:16;;;;;;;3.90;2.90;;;;;;;;;;4726008;30;20531;-94
2022/04/20 08:10:42;;;;;;;3.47;3.17;;;;;;;;;;4720410;30;20057;-84
2022/04/20 08:15:55;;;;;;;5.55;3.72;;;;;;;;;;4704632;30;20064;-84
2022/04/20 08:18:21;;;;;;;6.38;3.55;;;;;;;;;;4718304;30;20484;-85
2022/04/20 08:20:48;;;;;;;5.15;3.50;;;;;;;;;;4705355;30;20053;-90
2022/04/20 08:23:14;;;;;;;4.32;3.60;;;;;;;;;;4719134;30;20056;-90
2022/04/20 08:25:40;;;;;;;5.97;2.83;;;;;;;;;;4703714;30;20049;-87
2022/04/20 08:28:07;;;;;;;3.45;3.10;;;;;;;;;;4718513;30;20093;-92
2022/04/20 08:30:33;;;;;;;4.32;2.83;;;;;;;;;;4704162;30;20632;-87
2022/04/20 08:33:00;;;;;;;4.47;2.97;;;;;;;;;;4718529;30;20140;-88
2022/04/20 08:35:29;;;;;;;4.53;3.00;;;;;;;;;;4751620;30;20059;-89
2022/04/20 08:37:55;;;;;;;3.55;2.50;;;;;;;;;;4742985;30;20087;-88
2022/04/20 08:40:21;;;;;;;3.30;2.30;;;;;;;;;;4757558;30;20105;-91
2022/04/20 08:42:48;;;;;;;2.30;2.10;;;;;;;;;;4758272;30;20463;-88
2022/04/20 08:45:18;;;;;;;2.55;2.13;;;;;;;;;;4743502;30;20460;-90
2022/04/20 08:47:45;;;;;;;2.75;2.13;;;;;;;;;;4746466;30;20116;-95
2022/04/20 08:50:11;;;;;;;6.30;2.10;;;;;;;;;;4744749;30;20459;-90
2022/04/20 08:52:37;;;;;;;2.42;2.22;;;;;;;;;;4745125;30;20059;-90
2022/04/20 08:55:07;;;;;;;3.00;2.17;;;;;;;;;;4749486;30;20091;-92
2022/04/20 08:57:34;;;;;;;2.83;2.10;;;;;;;;;;4746930;30;20055;-92
2022/04/20 09:00:01;;;;;;;2.58;1.80;;;;;;;;;;4750925;24;20548;-92
2022/04/20 09:02:28;;;;;;;6.13;2.20;;;;;;;;;;4744685;30;20060;-91
2022/04/20 09:04:55;;;;;;;3.10;1.80;;;;;;;;;;4758285;30;20044;-91
2022/04/20 09:07:21;;;;;;;3.90;1.70;;;;;;;;;;4740634;30;20107;-90
2022/04/20 09:09:47;;;;;;;1.80;1.67;;;;;;;;;;4726234;30;20055;-90
2022/04/20 09:12:25;;;;;;;1.90;1.67;;;;;;;;;;4726666;30;20056;-88
2022/04/20 09:14:52;;;;;;;4.07;1.90;;;;;;;;;;4741723;30;20159;-93
2022/04/20 09:17:19;;;;;;;2.72;1.67;;;;;;;;;;4742238;30;20044;-91
2022/04/20 09:19:46;;;;;;;2.78;1.80;;;;;;;;;;4726595;30;20056;-89
2022/04/20 09:22:31;;;;;;;2.30;2.10;;;;;;;;;;4726424;30;20048;-86
2022/04/20 09:24:58;;;;;;;5.60;1.92;;;;;;;;;;4740376;30;20052;-85
2022/04/20 09:27:26;;;;;;;2.90;1.67;;;;;;;;;;4740632;30;20048;-86
2022/04/20 09:29:54;;;;;;;1.63;1.50;;;;;;;;;;4740739;30;20048;-84
2022/04/20 09:32:49;;;;;;;2.25;1.55;;;;;;;;;;4756535;30;20059;-84
2022/04/20 09:35:16;;;;;;;2.08;1.63;;;;;;;;;;4721846;29;20065;-85
2022/04/20 09:37:43;;;;;;;1.50;1.40;;;;;;;;;;4722922;30;20059;-84
2022/04/20 09:40:11;;;;;;;4.40;1.42;;;;;;;;;;4708601;30;20094;-86
2022/04/20 09:42:57;;;;;;;1.70;1.45;;;;;;;;;;4722324;30;20418;-84
2022/04/20 09:45:24;;;;;;;1.58;1.48;;;;;;;;;;4726713;30;20181;-84
2022/04/20 09:50:35;;;;;;;2.50;1.50;;;;;;;;;;4704571;30;20443;-85
2022/04/20 09:53:06;;;;;;;2.15;1.40;;;13.60;99.90;;;;;;4690756;30;20060;-85
2022/04/20 09:55:35;;;;;;;1.10;1.00;;;;;;;;;;4704562;30;20136;-85
2022/04/20 09:58:17;;;;;;;2.55;1.40;;;;;;;;;;4689590;30;20068;-86
2022/04/20 10:00:50;;;;;;;1.10;1.00;;;;;;;;;;4689874;30;20061;-85
2022/04/20 10:03:24;;;;;;;2.75;1.70;;;;;;;;;;4689300;30;20614;-84
2022/04/20 10:05:50;;;;;;;4.13;1.80;;;;;;;;;;4718241;30;20542;-84
2022/04/20 10:08:17;;;;;;;1.75;1.63;;;;;;;;;;4703985;30;20053;-85
2022/04/20 10:10:45;;;;;;;1.38;1.27;;;;;;;;;;4707306;30;20515;-87
2022/04/20 10:13:11;;;;;;;3.05;1.45;;;;;;;;;;4708296;30;20045;-85
2022/04/20 10:18:25;;;;;;;3.03;1.88;;;;;;;;;;4722370;30;20053;-85
2022/04/20 10:20:54;;;;;;;2.03;1.25;;;;;;;;;;4707614;30;20052;-84
2022/04/20 10:26:30;;;;;;;1.20;1.10;;;;;;;;;;4720704;30;20607;-87
2022/04/20 10:29:08;;;;;;;3.45;1.33;;;;;;;;;;4721237;30;20057;-88
2022/04/20 10:31:43;;;;;;;1.38;1.13;;;;;;;;;;4706955;30;20061;-91
2022/04/20 10:34:18;;;;;;;2.28;1.58;;;;;;;;;;4731455;30;20060;-86
2022/04/20 10:37:00;;;;;;;2.42;1.48;;;;;;;;;;4735500;30;20131;-87
2022/04/20 10:39:29;;;;;;;1.65;1.50;;;;;;;;;;4719884;30;20519;-87
2022/04/20 10:42:33;;;;;;;2.50;1.58;;;;;;;;;;4719931;30;20048;-87
2022/04/20 10:45:01;;;;;;;2.42;1.38;;;14.60;99.90;;;;;;4702785;30;20068;-89
2022/04/20 10:47:55;;;;;;;2.05;1.30;;;14.50;99.90;;;;;;4718533;30;20084;-90
2022/04/20 10:50:29;;;;;;;1.50;1.40;;;;;;;;;;4702876;30;20061;-88
2022/04/20 10:55:30;;;;;;;1.88;1.45;;;;;;;;;;4701922;30;20053;-87
2022/04/20 10:57:57;;;;;;;2.72;1.55;;;;;;;;;;4701964;30;20117;-88
2022/04/20 11:00:24;;;;;;;1.58;1.40;;;;;;;;;;4702010;30;20056;-88
2022/04/20 11:02:50;;;;;;;1.83;1.40;;;;;;;;;;4698958;30;20066;-88
2022/04/20 11:05:20;;;;;;;1.63;1.50;;;;;;;;;;4670968;30;20447;-88
2022/04/20 11:08:04;;;;;;;3.33;1.67;;;;;;;;;;4670698;30;20392;-88
2022/04/20 11:10:30;;;;;;;4.03;1.33;;;;;;;;;;4670535;30;20126;-89
2022/04/20 11:19:08;;;;;;;1.73;1.60;;;;;;;;;;4710549;30;20471;-85
2022/04/20 11:21:35;;;;;;;4.25;1.73;;;15.50;99.90;;;;;;4736989;30;20133;-85
2022/04/20 11:24:08;;;;;;;1.65;1.45;;;;;;;;;;4721055;30;20490;-84
2022/04/20 11:26:34;;;;;;;5.22;1.63;;;;;;;;;;4721716;30;20049;-85
2022/04/20 11:29:03;;;;;;;1.70;1.60;;;;;;;;;;4737269;30;20061;-86
2022/04/20 11:31:40;;;;;;;5.47;1.52;;;;;;;;;;4739090;30;20052;-85
2022/04/20 11:34:06;;;;;;;1.70;1.58;;;;;;;;;;4710335;30;20461;-85
2022/04/20 11:36:33;;;;;;;4.30;1.58;;;;;;;;;;4710148;30;20495;-85
2022/04/20 11:39:01;;;;;;;2.10;1.33;;;15.60;99.90;;;;;;4739387;30;20126;-84
2022/04/20 11:41:27;;;;;;;4.38;1.20;;;;;;;;;;4725069;30;20052;-86
2022/04/20 11:43:53;;;;;;;2.30;1.30;;;;;;;;;;4740127;30;20114;-87
2022/04/20 11:46:20;;;;;;;1.55;1.42;;;;;;;;;;4710255;30;20040;-87
2022/04/20 11:48:50;;;;;;;1.88;1.52;;;15.60;99.90;;;;;;4740565;30;20064;-88
2022/04/20 11:51:21;;;;;;;1.30;1.15;;;16.00;99.90;;;;;;4724380;30;20131;-88
2022/04/20 11:53:48;;;;;;;1.33;1.23;;;;;;;;;;4739126;30;20049;-86
2022/04/20 11:56:15;;;;;;;1.13;1.02;;;;;;;;;;4739061;30;20215;-87
2022/04/20 11:58:41;;;;;;;1.40;1.30;;;;;;;;;;4739434;30;20205;-87
2022/04/20 12:01:11;;;;;;;3.85;1.35;;;;;;;;;;4738921;30;20068;-83
2022/04/20 12:03:41;;;;;;;1.67;1.40;;;15.90;99.90;;;;;;4738967;30;20057;-82
2022/04/20 12:06:09;;;;;;;5.15;2.13;;;16.00;99.90;;;;;;4739049;30;20059;-83
2022/04/20 12:08:41;;;;;;;1.23;1.13;;;15.70;99.90;;;;;;4739090;30;20053;-83
2022/04/20 12:11:10;;;;;;;70.90;7.70;;;16.10;99.90;;;;;;4709220;30;20048;-83
2022/04/20 12:13:36;;;;;;;1.35;1.25;;;;;;;;;;4739726;30;20076;-83
2022/04/20 12:16:04;;;;;;;1.73;1.48;;;16.30;99.90;;;;;;4709610;30;20114;-83
2022/04/20 12:18:33;;;;;;;2.13;1.15;;;16.40;99.90;;;;;;4722537;30;20506;-86
2022/04/20 12:20:59;;;;;;;0.90;0.77;;;;;;;;;;4709087;30;20053;-86
2022/04/20 12:23:33;;;;;;;1.48;1.15;;;16.40;99.90;;;;;;4738569;30;20080;-91
2022/04/20 12:26:01;;;;;;;1.10;1.00;;;;;;;;;;4724196;30;20052;-88
2022/04/20 12:28:44;;;;;;;1.67;1.05;;;16.50;99.90;;;;;;4708796;30;20562;-89
2022/04/20 12:31:12;;;;;;;1.95;1.20;;;;;;;;;;4722953;30;20057;-89
2022/04/20 12:33:41;;;;;;;2.35;1.35;;;16.70;99.90;;;;;;4708318;30;20092;-87
2022/04/20 12:36:11;;;;;;;1.70;0.93;;;16.60;99.90;;;;;;4708071;30;20057;-88
2022/04/20 12:38:50;;;;;;;1.17;0.98;;;16.80;99.90;;;;;;4738214;30;20064;-86
2022/04/20 12:41:35;;;;;;;1.38;1.27;;;16.80;99.90;;;;;;4709088;30;20053;-91
2022/04/20 12:44:02;;;;;;;2.03;1.27;;;;;;;;;;4740204;30;20447;-90
2022/04/20 12:46:33;;;;;;;6.97;1.70;;;16.80;99.90;;;;;;4739776;30;20088;-84
2022/04/20 12:49:00;;;;;;;1.27;1.02;;;16.80;99.90;;;;;;4722869;30;20056;-92
2022/04/20 12:51:26;;;;;;;13.60;1.77;;;;;;;;;;4708876;30;20123;-92
2022/04/20 12:53:54;;;;;;;2.20;1.30;;;;;;;;;;4709447;30;20052;-88
2022/04/20 13:02:04;;;;;;;5.05;1.70;;;17.10;99.90;;;;;;4739931;30;20069;-88
2022/04/20 13:04:30;;;;;;;1.77;1.63;;;;;;;;;;4722916;30;20076;-90
2022/04/20 13:06:56;;;;;;;3.25;2.67;;;;;;;;;;4737709;30;20135;-91
2022/04/20 13:09:22;;;;;;;5.32;3.25;;;;;;;;;;4722822;30;20467;-85
2022/04/20 13:11:49;;;;;;;5.13;3.05;;;;;;;;;;4736853;30;20049;-85
2022/04/20 13:14:15;;;;;;;3.47;3.08;;;;;;;;;;4738454;30;20522;-84
2022/04/20 13:16:41;;;;;;;3.22;2.92;;;;;;;;;;4722734;30;20443;-85
2022/04/20 13:19:07;;;;;;;7.07;3.28;;;;;;;;;;4737642;30;20049;-82
2022/04/20 13:21:34;;;;;;;6.88;2.88;;;;;;;;;;4721623;30;20515;-82
2022/04/20 13:24:00;;;;;;;4.43;3.38;;;;;;;;;;4736871;30;20052;-82
2022/04/20 13:29:12;;;;;;;4.03;2.75;;;16.90;99.90;;;;;;4721429;30;20053;-82
2022/04/20 13:31:38;;;;;;;5.53;3.28;;;;;;;;;;4707478;30;20051;-83
2022/04/20 13:34:04;;;;;;;4.00;3.03;;;;;;;;;;4707517;30;20057;-82
2022/04/20 13:36:30;;;;;;;4.95;3.25;;;;;;;;;;4736578;30;20052;-82
2022/04/20 13:39:22;;;;;;;;;;;;;;;;;;;;;
2022/04/20 13:42:42;;;;;;;5.90;3.28;;;16.70;99.90;;;;;;4722611;30;20053;-92
2022/04/20 13:45:11;;;;;;;9.68;3.72;;;;;;;;;;4696903;30;20067;-91
2022/04/20 13:51:16;;;;;;;3.08;2.78;;;17.00;99.90;;;;;;4633513;31;20062;-89
2022/04/20 13:53:42;;;;;;;3.92;2.78;;;;;;;;;;4632944;30;20466;-87
2022/04/20 13:56:11;;;;;;;3.90;3.53;;;;;;;;;;4634624;31;20404;-88
2022/04/20 13:58:41;;;;;;;28.55;4.43;;;;;;;;;;4619823;30;20047;-86
2022/04/20 14:01:21;;;;;;;;;;;;;;;;;;;;;
2022/04/20 14:03:51;;;;;;;3.17;2.63;;;;;;;;;;4633768;31;20051;-89
2022/04/20 14:09:48;;;;;;;3.03;2.67;;;;;;;;;;4600368;30;20067;-86
2022/04/20 14:12:15;;;;;;;4.05;3.08;;;17.00;99.90;;;;;;4586366;31;20182;-87
2022/04/20 14:14:42;;;;;;;4.70;3.67;;;;;;;;;;4600722;31;20443;-89
2022/04/20 14:17:10;;;;;;;4.28;3.03;;;;;;;;;;4585404;31;20056;-89
2022/04/20 14:19:42;;;;;;;5.95;3.15;;;16.90;99.90;;;;;;4586113;31;20075;-87
2022/04/20 14:22:08;;;;;;;3.67;3.05;;;;;;;;;;4594618;31;20066;-88
2022/04/20 14:24:34;;;;;;;4.32;3.05;;;;;;;;;;4602896;31;20487;-88
2022/04/20 14:32:33;;;;;;;3.92;3.20;;;;;;;;;;4653387;30;20066;-88
2022/04/20 14:34:59;;;;;;;3.30;3.00;;;;;;;;;;4652868;30;20060;-89
2022/04/20 14:37:31;;;;;;;10.88;3.67;;;;;;;;;;4653593;30;20073;-89
2022/04/20 14:39:57;;;;;;;6.82;3.85;;;;;;;;;;4663806;30;20077;-86
2022/04/20 14:42:24;;;;;;;5.55;3.10;;;;;;;;;;4690509;30;20479;-87
2022/04/20 14:44:50;;;;;;;5.95;4.38;;;;;;;;;;4689329;30;20064;-87
2022/04/20 14:47:17;;;;;;;5.22;4.07;;;;;;;;;;4720764;30;20147;-85
2022/04/20 14:49:43;;;;;;;6.72;4.65;;;;;;;;;;4735940;30;20060;-88
2022/04/20 14:52:18;;;;;;;6.18;4.68;;;16.80;99.90;;;;;;4707532;30;20202;-87
2022/04/20 14:54:45;;;;;;;4.10;3.60;;;16.90;99.90;;;;;;4721838;30;20136;-88
2022/04/20 14:57:11;;;;;;;6.32;4.63;;;;;;;;;;4722456;30;20560;-87
2022/04/20 14:59:37;;;;;;;8.40;4.47;;;;;;;;;;4736227;30;20057;-87
2022/04/20 15:02:06;;;;;;;6.32;5.03;;;;;;;;;;4737717;30;20079;-87
2022/04/20 15:04:34;;;;;;;5.25;4.20;;;17.00;99.90;;;;;;4707144;30;20136;-87
2022/04/20 15:07:01;;;;;;;7.50;4.55;;;;;;;;;;4720783;30;20062;-87
2022/04/20 15:09:27;;;;;;;5.88;4.55;;;;;;;;;;4706638;30;20048;-88
2022/04/20 15:11:53;;;;;;;5.60;5.00;;;;;;;;;;4706816;30;20473;-87
2022/04/20 15:14:20;;;;;;;8.70;5.05;;;;;;;;;;4736381;30;20095;-87
2022/04/20 15:16:46;;;;;;;5.07;4.55;;;;;;;;;;4706902;30;20053;-88
2022/04/20 15:19:16;;;;;;;13.55;5.25;;;;;;;;;;4707130;30;20052;-88
2022/04/20 15:21:45;;;;;;;11.25;5.10;;;17.00;99.90;;;;;;4735738;30;20498;-86
2022/04/20 15:24:12;;;;;;;8.82;5.68;;;;;;;;;;4706937;30;20192;-88
2022/04/20 15:26:38;;;;;;;9.55;6.15;;;;;;;;;;4707233;30;20045;-88
2022/04/20 15:29:05;;;;;;;6.60;5.40;;;;;;;;;;4706525;30;20053;-88
2022/04/20 15:31:31;;;;;;;6.57;4.57;;;;;;;;;;4707271;30;20087;-88
2022/04/20 15:33:58;;;;;;;7.47;4.72;;;;;;;;;;4707384;30;20055;-88
2022/04/20 15:36:24;;;;;;;6.80;4.90;;;;;;;;;;4720470;30;20056;-86
2022/04/20 15:38:50;;;;;;;7.72;5.25;;;;;;;;;;4705559;30;20060;-86
2022/04/20 15:41:17;;;;;;;5.65;5.05;;;;;;;;;;4705723;30;20048;-87
2022/04/20 15:43:44;;;;;;;5.55;4.20;;;;;;;;;;4705946;30;20506;-86
2022/04/20 15:46:12;;;;;;;5.25;4.47;;;16.90;99.90;;;;;;4734411;30;20502;-89
2022/04/20 15:48:38;;;;;;;9.52;5.15;;;;;;;;;;4706114;30;20052;-88
2022/04/20 15:51:04;;;;;;;8.27;4.68;;;;;;;;;;4705575;30;20045;-85
2022/04/20 15:53:31;;;;;;;8.35;5.03;;;;;;;;;;4735313;30;20071;-89
2022/04/20 16:01:27;;;;;;;5.18;4.55;;;;;;;;;;4706656;30;20490;-88
2022/04/20 16:03:53;;;;;;;5.07;4.43;;;;;;;;;;4689012;30;20057;-87
2022/04/20 16:06:20;;;;;;;8.85;4.80;;;;;;;;;;4716759;30;20057;-88
2022/04/20 16:08:46;;;;;;;6.35;4.90;;;;;;;;;;4687876;30;20049;-86
2022/04/20 16:11:13;;;;;;;7.38;4.65;;;;;;;;;;4716819;30;20389;-86
2022/04/20 16:13:39;;;;;;;5.38;4.75;;;;;;;;;;4689726;30;20480;-89
2022/04/20 16:16:05;;;;;;;5.63;4.97;;;;;;;;;;4720646;30;20045;-87